Time;durP1;ratioP1;P1;durP2;ratioP2;P2;SDS_P1;SDS_P2;PMS_P1;PMS_P2;Temp;Humidity;BMP_temperature;BMP_pressure;BME280_temperature;BME280_humidity;BME280_pressure;Samples;Min_cycle;Max_cycle;Signal;HPM_P1;HPM_P2
2023/08/15 00:01:39;;;;;;;6.27;5.10;;;;;;;;;;4996181;28;20722;-86
2023/08/15 00:04:05;;;;;;;5.63;4.73;;;;;;;;;;4995714;28;20215;-87
2023/08/15 00:06:31;;;;;;;7.00;5.20;;;;;;;;;;4980624;28;20206;-86
2023/08/15 00:09:00;;;;;;;6.67;5.37;;;;;;;;;;4995046;28;20219;-86
2023/08/15 00:11:26;;;;;;;5.67;5.17;;;;;;;;;;5020805;28;20184;-86
2023/08/15 00:13:55;;;;;;;8.13;5.43;;;;;;;;;;5014097;28;20227;-86
2023/08/15 00:16:21;;;;;;;7.53;5.57;;;;;;;;;;5014627;28;20258;-87
2023/08/15 00:18:48;;;;;;;7.40;5.40;;;;;;;;;;4998219;28;20238;-86
2023/08/15 00:21:14;;;;;;;5.30;4.80;;;;;;;;;;4997591;28;20210;-86
2023/08/15 00:23:40;;;;;;;7.83;5.60;;;;;;;;;;4996811;28;20206;-86
2023/08/15 00:26:06;;;;;;;6.53;4.90;;;;;;;;;;4996063;28;20885;-86
2023/08/15 00:28:32;;;;;;;7.13;5.60;;;;;;;;;;4978288;28;20215;-86
2023/08/15 00:30:58;;;;;;;8.20;5.57;;;;;;;;;;4994917;28;20185;-86
2023/08/15 00:33:25;;;;;;;6.37;5.33;;;;;;;;;;4981599;28;20559;-86
2023/08/15 00:35:51;;;;;;;7.90;5.57;;;;;;;;;;5014507;28;20602;-86
2023/08/15 00:38:18;;;;;;;5.23;4.83;;;;;;;;;;4981377;28;20248;-86
2023/08/15 00:40:44;;;;;;;5.50;5.00;;;;;;;;;;4981194;28;20214;-86
2023/08/15 00:43:11;;;;;;;7.50;5.60;;;;;;;;;;4992588;28;20208;-87
2023/08/15 00:45:39;;;;;;;5.23;4.73;;;;;;;;;;4981120;28;20217;-86
2023/08/15 00:48:06;;;;;;;5.80;5.20;;;;;;;;;;4980106;28;20203;-86
2023/08/15 00:50:33;;;;;;;6.10;5.50;;;;;;;;;;4981529;28;20712;-87
2023/08/15 00:53:00;;;;;;;6.30;5.23;;;;;;;;;;4994798;28;20262;-87
2023/08/15 00:55:27;;;;;;;7.07;5.53;;;;;;;;;;5012658;28;20210;-86
2023/08/15 00:57:53;;;;;;;6.10;5.37;;;;;;;;;;4978832;28;20239;-86
2023/08/15 01:00:19;;;;;;;7.37;5.00;;;;;;;;;;4981019;28;20199;-86
2023/08/15 01:02:45;;;;;;;6.33;5.00;;;;;;;;;;4993827;28;20193;-86
2023/08/15 01:05:16;;;;;;;7.07;5.20;;;;;;;;;;5017279;23;20234;-82
2023/08/15 01:07:42;;;;;;;6.13;5.43;;;;;;;;;;4991657;28;20697;-81
2023/08/15 01:10:09;;;;;;;6.40;5.10;;;;;;;;;;4991308;28;20281;-81
2023/08/15 01:12:41;;;;;;;7.63;5.50;;;;;;;;;;5009831;28;20221;-82
2023/08/15 01:15:13;;;;;;;5.80;5.27;;;;;;;;;;5024066;28;20223;-82
2023/08/15 01:17:53;;;;;;;8.73;5.30;;;;;;;;;;4985290;28;20522;-82
2023/08/15 01:20:23;;;;;;;6.33;5.70;;;;;;;;;;4989195;28;20733;-81
2023/08/15 01:22:52;;;;;;;6.30;5.63;;;;;;;;;;4993674;28;20188;-82
2023/08/15 01:25:18;;;;;;;6.30;5.70;;;;;;;;;;4992368;28;20218;-82
2023/08/15 01:27:44;;;;;;;6.93;6.23;;;;;;;;;;4999077;28;20569;-82
2023/08/15 01:30:10;;;;;;;7.03;6.33;;;;;;;;;;5014178;28;20191;-81
2023/08/15 01:32:41;;;;;;;7.27;6.57;;;;;;;;;;5010648;28;20716;-82
2023/08/15 01:35:07;;;;;;;7.97;7.00;;;;;;;;;;5003915;28;20674;-82
2023/08/15 01:37:35;;;;;;;7.97;7.17;;;;;;;;;;4990147;28;20199;-82
2023/08/15 01:40:02;;;;;;;9.27;7.00;;;;;;;;;;5009665;28;20185;-82
2023/08/15 01:42:30;;;;;;;7.50;6.80;;;;;;;;;;4988504;28;20598;-81
2023/08/15 01:44:57;;;;;;;7.77;6.97;;;;;;;;;;4993393;28;20269;-82
2023/08/15 01:47:24;;;;;;;7.80;7.00;;;;;;;;;;4991645;28;20216;-82
2023/08/15 01:49:50;;;;;;;7.37;6.40;;;;;;;;;;4990097;28;20273;-81
2023/08/15 01:52:16;;;;;;;7.53;6.80;;;;;;;;;;4988019;28;20788;-82
2023/08/15 01:54:42;;;;;;;8.23;6.80;;;;;;;;;;4989120;28;20939;-82
2023/08/15 01:57:08;;;;;;;7.17;6.33;;;;;;;;;;4989443;28;20183;-82
2023/08/15 01:59:34;;;;;;;7.13;6.23;;;;;;;;;;4972265;28;20187;-82
2023/08/15 02:02:00;;;;;;;8.00;6.07;;;;;;;;;;4988517;28;20180;-82
2023/08/15 02:04:27;;;;;;;9.13;6.03;;;;;;;;;;4996689;28;20222;-82
2023/08/15 02:06:53;;;;;;;8.20;5.93;;;;;;;;;;4999492;28;20215;-82
2023/08/15 02:09:19;;;;;;;6.20;5.60;;;;;;;;;;4995250;28;20211;-81
2023/08/15 02:11:45;;;;;;;7.30;5.87;;;;;;;;;;4994067;28;20187;-81
2023/08/15 02:14:11;;;;;;;6.83;6.13;;;;;;;;;;4979001;28;20258;-82
2023/08/15 02:16:37;;;;;;;6.00;5.40;;;;;;;;;;5003916;28;20183;-81
2023/08/15 02:19:03;;;;;;;6.47;5.30;;;;;;;;;;5004231;28;20182;-81
2023/08/15 02:21:30;;;;;;;6.03;5.43;;;;;;;;;;4990934;28;20564;-82
2023/08/15 02:23:56;;;;;;;5.67;5.17;;;;;;;;;;4972412;28;20207;-82
2023/08/15 02:26:23;;;;;;;6.67;5.47;;;;;;;;;;4984989;28;20250;-81
2023/08/15 02:28:49;;;;;;;6.30;5.70;;;;;;;;;;5027516;28;20635;-82
2023/08/15 02:31:16;;;;;;;6.27;5.63;;;;;;;;;;5003518;28;20203;-81
2023/08/15 02:33:42;;;;;;;9.23;6.30;;;;;;;;;;5004533;28;20638;-82
2023/08/15 02:36:08;;;;;;;9.07;6.83;;;;;;;;;;4975686;28;20187;-82
2023/08/15 02:38:37;;;;;;;8.10;6.50;;;;;;;;;;5004176;28;20274;-82
2023/08/15 02:41:05;;;;;;;6.60;6.00;;;;;;;;;;4996244;28;20234;-81
2023/08/15 02:43:31;;;;;;;8.00;6.57;;;;;;;;;;4997088;28;20203;-81
2023/08/15 02:45:59;;;;;;;7.70;6.20;;;;;;;;;;5015755;28;20615;-82
2023/08/15 02:48:26;;;;;;;8.83;6.53;;;;;;;;;;4980532;28;20246;-82
2023/08/15 02:50:52;;;;;;;7.60;6.90;;;;;;;;;;4997228;28;20207;-82
2023/08/15 02:53:18;;;;;;;7.03;6.33;;;;;;;;;;5027966;28;20725;-82
2023/08/15 02:55:49;;;;;;;7.87;6.20;;;;;;;;;;5004129;28;20203;-82
2023/08/15 02:58:15;;;;;;;7.73;6.20;;;;;;;;;;5021990;28;20243;-82
2023/08/15 03:00:41;;;;;;;7.47;5.77;;;;;;;;;;4985064;28;20211;-82
2023/08/15 03:03:07;;;;;;;6.50;5.53;;;;;;;;;;4995127;28;20191;-82
2023/08/15 03:05:33;;;;;;;8.50;6.70;;;;;;;;;;5013498;28;20697;-82
2023/08/15 03:07:59;;;;;;;8.10;6.50;;;;;;;;;;4988960;28;20207;-82
2023/08/15 03:10:26;;;;;;;7.33;5.90;;;;;;;;;;5016415;28;20171;-82
2023/08/15 03:12:52;;;;;;;9.03;6.20;;;;;;;;;;5018417;28;20198;-82
2023/08/15 03:15:18;;;;;;;10.70;6.83;;;;;;;;;;4996275;28;20302;-82
2023/08/15 03:17:44;;;;;;;12.33;7.13;;;;;;;;;;4994980;28;20237;-82
2023/08/15 03:20:11;;;;;;;9.97;6.80;;;;;;;;;;4985671;28;20183;-82
2023/08/15 03:22:38;;;;;;;8.67;6.60;;;;;;;;;;5008571;28;20195;-82
2023/08/15 03:25:04;;;;;;;6.97;6.27;;;;;;;;;;4998679;28;20206;-81
2023/08/15 03:27:31;;;;;;;8.03;5.97;;;;;;;;;;5007100;28;20206;-82
2023/08/15 03:29:57;;;;;;;6.93;5.73;;;;;;;;;;4994050;28;20195;-81
2023/08/15 03:32:25;;;;;;;7.93;6.40;;;;;;;;;;4978176;28;20222;-81
2023/08/15 03:34:51;;;;;;;8.43;6.10;;;;;;;;;;4994188;28;20337;-82
2023/08/15 03:37:18;;;;;;;8.53;6.37;;;;;;;;;;5006306;28;20191;-82
2023/08/15 03:39:44;;;;;;;11.00;6.77;;;;;;;;;;4994815;28;20663;-82
2023/08/15 03:42:10;;;;;;;8.47;6.37;;;;;;;;;;5016710;28;20237;-82
2023/08/15 03:44:38;;;;;;;9.70;6.23;;;;;;;;;;4991111;28;20584;-82
2023/08/15 03:47:05;;;;;;;8.60;6.00;;;;;;;;;;4974194;28;20247;-82
2023/08/15 03:49:31;;;;;;;9.50;6.60;;;;;;;;;;4975572;28;20202;-82
2023/08/15 03:51:58;;;;;;;8.27;6.83;;;;;;;;;;5011138;28;20218;-82
2023/08/15 03:54:24;;;;;;;7.73;6.53;;;;;;;;;;4996878;28;20215;-82
2023/08/15 03:56:50;;;;;;;7.73;6.93;;;;;;;;;;4998332;28;20179;-82
2023/08/15 03:59:16;;;;;;;8.20;7.40;;;;;;;;;;5020408;28;20186;-82
2023/08/15 04:01:42;;;;;;;8.13;7.07;;;;;;;;;;5006466;28;20618;-82
2023/08/15 04:04:09;;;;;;;8.43;6.73;;;;;;;;;;4999356;28;20243;-82
2023/08/15 04:06:35;;;;;;;10.07;6.97;;;;;;;;;;4999637;28;20207;-82
2023/08/15 04:09:01;;;;;;;8.57;6.80;;;;;;;;;;4997114;28;20211;-82
2023/08/15 04:11:28;;;;;;;7.10;6.37;;;;;;;;;;4994012;28;20184;-82
2023/08/15 04:13:54;;;;;;;7.83;6.90;;;;;;;;;;4995666;28;20635;-82
2023/08/15 04:16:20;;;;;;;9.20;7.70;;;;;;;;;;5001902;28;20187;-82
2023/08/15 04:18:46;;;;;;;10.93;8.17;;;;;;;;;;4973824;28;20255;-82
2023/08/15 04:21:12;;;;;;;10.93;7.50;;;;;;;;;;4986144;28;20820;-82
2023/08/15 04:23:39;;;;;;;7.93;7.17;;;;;;;;;;4957850;28;20187;-82
2023/08/15 04:26:06;;;;;;;13.03;6.77;;;;;;;;;;4993381;28;20665;-81
2023/08/15 04:28:32;;;;;;;9.17;8.17;;;;;;;;;;5004373;28;20674;-82
2023/08/15 04:30:58;;;;;;;9.97;7.23;;;;;;;;;;4995327;28;20387;-81
2023/08/15 04:33:25;;;;;;;8.10;6.80;;;;;;;;;;4995569;28;20190;-82
2023/08/15 04:35:51;;;;;;;9.67;7.07;;;;;;;;;;5009566;28;20745;-81
2023/08/15 04:38:17;;;;;;;11.37;7.30;;;;;;;;;;4996640;28;20290;-81
2023/08/15 04:40:44;;;;;;;9.63;8.10;;;;;;;;;;4996419;28;20190;-81
2023/08/15 04:43:11;;;;;;;11.23;7.80;;;;;;;;;;5001074;28;20187;-82
2023/08/15 04:45:40;;;;;;;9.97;8.37;;;;;;;;;;4983894;28;20238;-81
2023/08/15 04:48:09;;;;;;;8.53;7.70;;;;;;;;;;5001345;28;20211;-82
2023/08/15 04:50:36;;;;;;;12.07;7.70;;;;;;;;;;4984410;28;20179;-81
2023/08/15 04:53:03;;;;;;;8.40;7.50;;;;;;;;;;4990988;28;20183;-82
2023/08/15 04:55:29;;;;;;;12.57;7.47;;;;;;;;;;4973759;28;20199;-80
2023/08/15 04:57:56;;;;;;;8.80;8.03;;;;;;;;;;4974442;28;20194;-81
2023/08/15 05:00:22;;;;;;;10.37;9.37;;;;;;;;;;4981477;28;20196;-81
2023/08/15 05:02:48;;;;;;;10.57;8.97;;;;;;;;;;5000050;28;20195;-81
2023/08/15 05:05:15;;;;;;;10.07;9.03;;;;;;;;;;4999902;28;20267;-82
2023/08/15 05:07:42;;;;;;;12.60;9.57;;;;;;;;;;4993066;28;20249;-81
2023/08/15 05:10:08;;;;;;;10.93;9.70;;;;;;;;;;4991360;28;20325;-80
2023/08/15 05:12:37;;;;;;;9.87;8.47;;;;;;;;;;4996249;28;20191;-81
2023/08/15 05:15:07;;;;;;;9.77;8.70;;;;;;;;;;4995447;28;20253;-81
2023/08/15 05:17:34;;;;;;;11.03;9.40;;;;;;;;;;5011237;28;20180;-81
2023/08/15 05:20:01;;;;;;;11.93;8.30;;;;;;;;;;4979315;28;20201;-82
2023/08/15 05:22:27;;;;;;;9.43;8.43;;;;;;;;;;4996858;28;20179;-82
2023/08/15 05:24:53;;;;;;;11.00;9.03;;;;;;;;;;4993027;28;20203;-77
2023/08/15 05:27:20;;;;;;;9.87;7.97;;;;;;;;;;5009372;28;20708;-77
2023/08/15 05:29:46;;;;;;;8.93;8.00;;;;;;;;;;4980978;28;20838;-78
2023/08/15 05:32:12;;;;;;;9.37;7.90;;;;;;;;;;4993988;28;20205;-77
2023/08/15 05:34:38;;;;;;;9.80;7.73;;;;;;;;;;5017469;28;20218;-77
2023/08/15 05:37:06;;;;;;;9.53;7.80;;;;;;;;;;4973715;28;20196;-77
2023/08/15 05:39:32;;;;;;;8.77;7.87;;;;;;;;;;4993004;28;20197;-77
2023/08/15 05:41:58;;;;;;;11.03;7.37;;;;;;;;;;5015558;28;20241;-77
2023/08/15 05:44:25;;;;;;;7.23;6.53;;;;;;;;;;4994744;28;20210;-78
2023/08/15 05:46:51;;;;;;;6.93;6.23;;;;;;;;;;5025492;28;20179;-78
2023/08/15 05:49:17;;;;;;;6.57;5.40;;;;;;;;;;5015333;28;20297;-77
2023/08/15 05:51:44;;;;;;;6.20;5.13;;;;;;;;;;5018854;28;20232;-77
2023/08/15 05:54:10;;;;;;;5.10;4.60;;;;;;;;;;4996231;28;20209;-77
2023/08/15 05:56:36;;;;;;;5.77;4.50;;;;;;;;;;5017628;28;20186;-80
2023/08/15 05:59:02;;;;;;;6.73;4.40;;;;;;;;;;5010303;28;20207;-78
2023/08/15 06:01:28;;;;;;;4.93;4.10;;;;;;;;;;5008543;28;20255;-78
2023/08/15 06:03:54;;;;;;;6.17;4.10;;;;;;;;;;5014204;28;20198;-78
2023/08/15 06:06:21;;;;;;;5.30;4.50;;;;;;;;;;5010936;28;20194;-78
2023/08/15 06:08:48;;;;;;;4.80;4.13;;;;;;;;;;5014728;28;20207;-77
2023/08/15 06:11:15;;;;;;;6.80;4.30;;;;;;;;;;5023396;28;20203;-78
2023/08/15 06:13:41;;;;;;;5.97;4.50;;;;;;;;;;5017298;28;20255;-79
2023/08/15 06:16:07;;;;;;;6.43;4.30;;;;;;;;;;4999218;28;20308;-79
2023/08/15 06:18:33;;;;;;;7.50;4.30;;;;;;;;;;4994694;28;20184;-78
2023/08/15 06:20:59;;;;;;;4.67;4.20;;;;;;;;;;5003553;28;20202;-78
2023/08/15 06:23:26;;;;;;;6.00;4.27;;;;;;;;;;5032528;28;20239;-78
2023/08/15 06:25:52;;;;;;;5.67;4.70;;;;;;;;;;5021980;28;20208;-79
2023/08/15 06:28:20;;;;;;;6.17;4.40;;;;;;;;;;5022562;28;20836;-78
2023/08/15 06:30:46;;;;;;;4.97;4.57;;;;;;;;;;4997472;28;20276;-78
2023/08/15 06:33:12;;;;;;;5.57;4.07;;;;;;;;;;4997640;28;20197;-78
2023/08/15 06:35:39;;;;;;;5.90;4.03;;;;;;;;;;5015022;28;20284;-78
2023/08/15 06:38:05;;;;;;;4.83;3.70;;;;;;;;;;4987341;28;20197;-78
2023/08/15 06:40:32;;;;;;;4.83;3.77;;;;;;;;;;5018664;28;20657;-79
2023/08/15 06:42:58;;;;;;;5.03;3.57;;;;;;;;;;5033602;28;20344;-78
2023/08/15 06:45:24;;;;;;;4.20;3.23;;;;;;;;;;4994693;28;20209;-79
2023/08/15 06:47:50;;;;;;;5.10;3.20;;;;;;;;;;5012869;28;20213;-79
2023/08/15 06:50:16;;;;;;;3.87;3.10;;;;;;;;;;5013797;28;20191;-79
2023/08/15 06:52:42;;;;;;;4.83;3.10;;;;;;;;;;4991880;28;20600;-77
2023/08/15 06:55:09;;;;;;;5.93;2.83;;;;;;;;;;4997118;28;20205;-82
2023/08/15 06:57:35;;;;;;;5.10;3.00;;;;;;;;;;5025101;28;20272;-78
2023/08/15 07:00:01;;;;;;;4.27;3.40;;;;;;;;;;5038794;28;20206;-79
2023/08/15 07:02:28;;;;;;;3.80;3.10;;;;;;;;;;5017797;28;20277;-77
2023/08/15 07:04:54;;;;;;;3.73;3.33;;;;;;;;;;5048493;22;20235;-78
2023/08/15 07:07:20;;;;;;;3.20;2.90;;;;;;;;;;5028853;28;20236;-78
2023/08/15 07:09:47;;;;;;;3.30;3.00;;;;;;;;;;5032649;28;20649;-78
2023/08/15 07:12:17;;;;;;;4.80;3.30;;;;;;;;;;5028599;28;20189;-79
2023/08/15 07:14:45;;;;;;;4.90;3.80;;;;;;;;;;5031988;28;20252;-78
2023/08/15 07:17:11;;;;;;;4.33;3.43;;;;;;;;;;5029826;28;20273;-78
2023/08/15 07:19:38;;;;;;;5.67;3.33;;;;;;;;;;5032774;28;20186;-78
2023/08/15 07:22:04;;;;;;;4.43;3.20;;;;;;;;;;5014821;28;20186;-79
2023/08/15 07:24:30;;;;;;;3.70;3.23;;;;;;;;;;5014558;28;20265;-78
2023/08/15 07:26:56;;;;;;;4.57;3.17;;;;;;;;;;5031940;28;20670;-78
2023/08/15 07:29:22;;;;;;;3.60;2.93;;;;;;;;;;5029217;28;20931;-78
2023/08/15 07:31:48;;;;;;;4.20;3.10;;;;;;;;;;5012947;28;20246;-78
2023/08/15 07:34:14;;;;;;;4.77;3.30;;;;;;;;;;5029636;28;20662;-78
2023/08/15 07:36:41;;;;;;;4.93;3.10;;;;;;;;;;5031064;28;20205;-78
2023/08/15 07:39:07;;;;;;;3.10;2.80;;;;;;;;;;5031583;28;20209;-78
2023/08/15 07:41:33;;;;;;;4.37;2.90;;;;;;;;;;5023038;28;20183;-78
2023/08/15 07:43:59;;;;;;;4.33;3.40;;;;;;;;;;5029993;28;20188;-78
2023/08/15 07:46:25;;;;;;;3.20;2.90;;;;;;;;;;5030423;28;21346;-79
2023/08/15 07:48:51;;;;;;;3.13;2.83;;;;;;;;;;5031639;28;20249;-78
2023/08/15 07:51:17;;;;;;;4.47;3.13;;;;;;;;;;5014566;28;20190;-78
2023/08/15 07:53:43;;;;;;;6.70;3.27;;;;;;;;;;5032322;28;20175;-78
2023/08/15 07:56:09;;;;;;;3.67;3.37;;;;;;;;;;5022396;28;20614;-79
2023/08/15 07:58:35;;;;;;;4.47;3.27;;;;;;;;;;5032045;28;20225;-78
2023/08/15 08:01:02;;;;;;;4.07;2.77;;;;;;;;;;5028649;28;20186;-79
2023/08/15 08:03:29;;;;;;;4.47;2.93;;;;;;;;;;5031396;28;20633;-79
2023/08/15 08:05:55;;;;;;;2.73;2.53;;;;;;;;;;5031187;28;20276;-78
2023/08/15 08:08:21;;;;;;;3.40;2.87;;;;;;;;;;5031359;28;20241;-79
2023/08/15 08:10:47;;;;;;;3.00;2.63;;;;;;;;;;5031796;28;20194;-78
2023/08/15 08:13:16;;;;;;;2.90;2.40;;;;;;;;;;5029380;28;20216;-78
2023/08/15 08:15:43;;;;;;;2.70;2.50;;;;;;;;;;5030653;28;20210;-79
2023/08/15 08:18:09;;;;;;;4.83;2.60;;;;;;;;;;5029181;28;20214;-78
2023/08/15 08:20:35;;;;;;;3.27;2.40;;;;;;;;;;5030146;28;20179;-78
2023/08/15 08:23:02;;;;;;;3.07;2.60;;;;;;;;;;5031352;28;20329;-78
2023/08/15 08:25:28;;;;;;;3.93;2.77;;;;;;;;;;5026371;28;20608;-79
2023/08/15 08:27:54;;;;;;;4.53;2.90;;;;;;;;;;5031470;28;20595;-78
2023/08/15 08:30:22;;;;;;;3.30;2.73;;;;;;;;;;5029109;28;20273;-78
2023/08/15 08:32:48;;;;;;;4.10;2.90;;;;;;;;;;5029660;28;20648;-79
2023/08/15 08:35:17;;;;;;;3.20;2.90;;;;;;;;;;5027457;28;20206;-79
2023/08/15 08:37:44;;;;;;;4.50;2.97;;;;;;;;;;5019913;28;20190;-78
2023/08/15 08:40:12;;;;;;;4.20;3.30;;;;;;;;;;5028705;28;20194;-78
2023/08/15 08:42:40;;;;;;;5.13;3.13;;;;;;;;;;5029393;28;20191;-78
2023/08/15 08:45:08;;;;;;;5.10;3.03;;;;;;;;;;5029191;28;20209;-78
2023/08/15 08:47:35;;;;;;;5.27;3.10;;;;;;;;;;5025652;28;20775;-78
2023/08/15 08:50:01;;;;;;;3.87;3.20;;;;;;;;;;5024969;28;20672;-79
2023/08/15 08:52:28;;;;;;;4.97;3.20;;;;;;;;;;5030382;28;20259;-78
2023/08/15 08:54:54;;;;;;;3.37;2.97;;;;;;;;;;5023003;28;20199;-78
2023/08/15 08:57:21;;;;;;;3.53;2.87;;;;;;;;;;5027922;28;20175;-78
2023/08/15 08:59:47;;;;;;;4.67;3.10;;;;;;;;;;5007123;28;20179;-79
2023/08/15 09:02:17;;;;;;;4.70;3.03;;;;;;;;;;5028611;28;20187;-79
2023/08/15 09:04:49;;;;;;;4.17;2.93;;;;;;;;;;5072767;28;20591;-79
2023/08/15 09:07:16;;;;;;;4.07;3.37;;;;;;;;;;5056123;28;20308;-80
2023/08/15 09:09:42;;;;;;;3.80;3.30;;;;;;;;;;5067232;28;20217;-79
2023/08/15 09:12:08;;;;;;;4.97;3.40;;;;;;;;;;5057761;28;20217;-79
2023/08/15 09:14:40;;;;;;;5.80;3.20;;;;;;;;;;5047385;28;20182;-79
2023/08/15 09:17:06;;;;;;;5.97;3.30;;;;;;;;;;5055129;28;20581;-80
2023/08/15 09:19:40;;;;;;;5.77;3.40;;;;;;;;;;5060559;28;20205;-79
2023/08/15 09:22:06;;;;;;;4.07;3.30;;;;;;;;;;5059288;28;20213;-79
2023/08/15 09:24:32;;;;;;;3.70;3.20;;;;;;;;;;5055181;28;20820;-79
2023/08/15 09:27:05;;;;;;;5.77;3.30;;;;;;;;;;5048030;28;20208;-79
2023/08/15 09:29:34;;;;;;;6.37;3.50;;;;;;;;;;5057916;28;20270;-79
2023/08/15 09:32:01;;;;;;;4.23;3.23;;;;;;;;;;5061983;28;20185;-79
2023/08/15 09:34:27;;;;;;;3.57;3.20;;;;;;;;;;5056740;28;20240;-79
2023/08/15 09:36:53;;;;;;;7.67;3.60;;;;;;;;;;5055397;28;20193;-79
2023/08/15 09:39:19;;;;;;;7.77;3.80;;;;;;;;;;5060396;28;20182;-79
2023/08/15 09:41:48;;;;;;;5.23;3.70;;;;;;;;;;5051128;28;20182;-79
2023/08/15 09:44:29;;;;;;;4.43;3.40;;;;;;;;;;5047492;28;20306;-79
2023/08/15 09:46:55;;;;;;;4.17;3.77;;;;;;;;;;5054708;28;20185;-79
2023/08/15 09:49:22;;;;;;;5.83;4.00;;;;;;;;;;5054074;28;20184;-79
2023/08/15 09:51:48;;;;;;;6.13;3.50;;;;;;;;;;5058405;28;20185;-79
2023/08/15 09:54:16;;;;;;;4.23;3.63;;;;;;;;;;5054793;28;20326;-79
2023/08/15 09:56:43;;;;;;;5.10;3.73;;;;;;;;;;5053948;28;20997;-80
2023/08/15 09:59:09;;;;;;;4.63;4.23;;;;;;;;;;5063023;28;20186;-79
2023/08/15 10:01:37;;;;;;;3.97;3.57;;;;;;;;;;5050359;28;20651;-79
2023/08/15 10:04:07;;;;;;;5.33;3.20;;;;;;;;;;5050064;28;20264;-80
2023/08/15 10:06:34;;;;;;;7.57;3.50;;;;;;;;;;5047118;28;20340;-80
2023/08/15 10:09:03;;;;;;;5.53;3.80;;;;;;;;;;5045924;28;20282;-80
2023/08/15 10:11:31;;;;;;;4.73;3.17;;;;;;;;;;5051669;28;20849;-80
2023/08/15 10:13:57;;;;;;;3.40;3.10;;;;;;;;;;5054487;28;20187;-79
2023/08/15 10:16:24;;;;;;;4.00;3.23;;;;;;;;;;5037064;28;20210;-79
2023/08/15 10:18:54;;;;;;;5.47;3.17;;;;;;;;;;5033093;28;20181;-79
2023/08/15 10:21:20;;;;;;;4.17;3.13;;;;;;;;;;5032100;28;20191;-79
2023/08/15 10:23:46;;;;;;;3.70;2.90;;;;;;;;;;5037063;28;20210;-79
2023/08/15 10:26:13;;;;;;;4.83;3.00;;;;;;;;;;5040821;28;20682;-79
2023/08/15 10:28:40;;;;;;;4.43;2.90;;;;;;;;;;5050470;28;20195;-79
2023/08/15 10:31:08;;;;;;;3.10;2.80;;;;;;;;;;5049467;28;20180;-79
2023/08/15 10:33:34;;;;;;;4.83;2.60;;;;;;;;;;5044545;28;20177;-79
2023/08/15 10:36:00;;;;;;;3.13;2.60;;;;;;;;;;5040874;28;20221;-79
2023/08/15 10:38:39;;;;;;;4.17;2.70;;;;;;;;;;5032938;28;20177;-79
2023/08/15 10:41:13;;;;;;;4.43;2.80;;;;;;;;;;5031872;28;20547;-79
2023/08/15 10:43:40;;;;;;;5.30;3.03;;;;;;;;;;5039968;28;20212;-79
2023/08/15 10:46:07;;;;;;;3.53;2.87;;;;;;;;;;5040280;28;20209;-79
2023/08/15 10:48:49;;;;;;;3.87;3.23;;;;;;;;;;5035140;28;20178;-79
2023/08/15 10:51:42;;;;;;;3.40;3.10;;;;;;;;;;5042324;28;20196;-79
2023/08/15 10:54:11;;;;;;;4.60;3.50;;;;;;;;;;5032331;28;20200;-79
2023/08/15 10:56:39;;;;;;;4.73;3.70;;;;;;;;;;5038846;28;20241;-79
2023/08/15 10:59:07;;;;;;;6.70;4.03;;;;;;;;;;5020135;28;20187;-79
2023/08/15 11:01:33;;;;;;;4.93;3.73;;;;;;;;;;5038896;28;20205;-79
2023/08/15 11:04:00;;;;;;;7.47;4.20;;;;;;;;;;5043379;28;20291;-79
2023/08/15 11:06:26;;;;;;;5.23;4.00;;;;;;;;;;5032209;28;20206;-79
2023/08/15 11:08:54;;;;;;;4.17;3.73;;;;;;;;;;5032086;28;20655;-79
2023/08/15 11:11:20;;;;;;;6.23;4.17;;;;;;;;;;5038058;28;20190;-79
2023/08/15 11:13:47;;;;;;;4.90;4.40;;;;;;;;;;5032146;28;20194;-79
2023/08/15 11:16:17;;;;;;;5.53;4.37;;;;;;;;;;5031674;28;20266;-79
2023/08/15 11:18:44;;;;;;;4.87;4.47;;;;;;;;;;5037671;28;20348;-80
2023/08/15 11:21:11;;;;;;;5.10;4.60;;;;;;;;;;5040183;28;20192;-79
2023/08/15 11:23:38;;;;;;;6.27;4.70;;;;;;;;;;5030732;28;20213;-79
2023/08/15 11:26:07;;;;;;;4.90;4.40;;;;;;;;;;5043284;28;20213;-79
2023/08/15 11:28:34;;;;;;;6.83;5.10;;;;;;;;;;5044114;28;20178;-79
2023/08/15 11:31:01;;;;;;;5.40;4.83;;;;;;;;;;5035921;28;20211;-79
2023/08/15 11:33:30;;;;;;;5.10;4.60;;;;;;;;;;5042941;28;20335;-79
2023/08/15 11:36:00;;;;;;;5.70;4.90;;;;;;;;;;5043442;28;20211;-79
2023/08/15 11:38:30;;;;;;;5.87;4.90;;;;;;;;;;5050235;28;20186;-79
2023/08/15 11:40:57;;;;;;;6.33;4.83;;;;;;;;;;5046364;28;20189;-79
2023/08/15 11:43:23;;;;;;;5.20;4.47;;;;;;;;;;5038935;28;20714;-79
2023/08/15 11:45:50;;;;;;;8.93;4.20;;;;;;;;;;5031556;28;20696;-79
2023/08/15 11:48:16;;;;;;;7.03;3.27;;;;;;;;;;5032869;28;20255;-79
2023/08/15 11:50:42;;;;;;;4.20;2.83;;;;;;;;;;5046533;28;20231;-79
2023/08/15 11:53:13;;;;;;;3.13;2.80;;;;;;;;;;5039715;28;20182;-79
2023/08/15 11:55:40;;;;;;;5.07;3.00;;;;;;;;;;5049709;28;20210;-79
2023/08/15 11:58:26;;;;;;;5.27;2.90;;;;;;;;;;5051005;28;20273;-79
2023/08/15 12:00:53;;;;;;;3.33;3.03;;;;;;;;;;5046135;28;20254;-79
2023/08/15 12:03:19;;;;;;;4.73;3.10;;;;;;;;;;5041165;28;20249;-78
2023/08/15 12:05:49;;;;;;;4.47;3.10;;;;;;;;;;5039611;28;20213;-79
2023/08/15 12:08:18;;;;;;;4.20;3.10;;;;;;;;;;5039525;28;20182;-79
2023/08/15 12:10:45;;;;;;;4.10;3.17;;;;;;;;;;5041606;28;20194;-78
2023/08/15 12:13:12;;;;;;;4.63;3.00;;;;;;;;;;5034322;28;20233;-79
2023/08/15 12:15:38;;;;;;;5.60;3.20;;;;;;;;;;5031658;28;20276;-79
2023/08/15 12:18:05;;;;;;;5.30;2.90;;;;;;;;;;5039721;28;20188;-79
2023/08/15 12:20:31;;;;;;;4.17;2.93;;;;;;;;;;5042938;28;20240;-79
2023/08/15 12:22:57;;;;;;;5.93;2.93;;;;;;;;;;5044143;28;20243;-79
2023/08/15 12:25:27;;;;;;;3.13;2.80;;;;;;;;;;5046679;28;20209;-79
2023/08/15 12:27:53;;;;;;;3.90;2.93;;;;;;;;;;5036176;28;20232;-78
2023/08/15 12:30:20;;;;;;;2.70;2.50;;;;;;;;;;5032272;28;20707;-79
2023/08/15 12:32:46;;;;;;;2.90;2.53;;;;;;;;;;5031186;28;20182;-79
2023/08/15 12:35:12;;;;;;;4.47;2.80;;;;;;;;;;5031190;28;20204;-79
2023/08/15 12:37:38;;;;;;;3.73;2.60;;;;;;;;;;5031320;28;20500;-79
2023/08/15 12:40:05;;;;;;;3.00;2.50;;;;;;;;;;5038758;28;20178;-80
2023/08/15 12:42:31;;;;;;;4.13;2.67;;;;;;;;;;5042210;28;20206;-79
2023/08/15 12:44:57;;;;;;;3.83;2.70;;;;;;;;;;5038905;28;20198;-80
2023/08/15 12:47:23;;;;;;;3.73;2.40;;;;;;;;;;5031939;28;20221;-80
2023/08/15 12:49:49;;;;;;;2.47;2.20;;;;;;;;;;5039228;28;20187;-80
2023/08/15 12:52:15;;;;;;;3.23;2.10;;;;;;;;;;5034434;28;20704;-80
2023/08/15 12:54:41;;;;;;;4.33;2.10;;;;;;;;;;5040819;28;20217;-79
2023/08/15 12:57:08;;;;;;;2.90;2.40;;;;;;;;;;5040885;28;20200;-78
2023/08/15 12:59:34;;;;;;;2.97;2.67;;;;;;;;;;5049470;28;20199;-79
2023/08/15 13:02:00;;;;;;;3.33;2.40;;;;;;;;;;5042923;28;20217;-79
2023/08/15 13:04:26;;;;;;;2.60;2.40;;;;;;;;;;5030355;28;20718;-79
2023/08/15 13:06:52;;;;;;;4.47;2.67;;;;;;;;;;5071050;22;20293;-76
2023/08/15 13:09:18;;;;;;;3.73;2.20;;;;;;;;;;5056900;28;20174;-78
2023/08/15 13:11:45;;;;;;;3.07;2.43;;;;;;;;;;5036931;28;20198;-78
2023/08/15 13:14:11;;;;;;;4.13;2.67;;;;;;;;;;5054861;28;20185;-78
2023/08/15 13:16:37;;;;;;;3.40;2.43;;;;;;;;;;5047612;28;20576;-78
2023/08/15 13:19:03;;;;;;;4.53;2.60;;;;;;;;;;5053735;28;20192;-78
2023/08/15 13:21:29;;;;;;;3.07;2.77;;;;;;;;;;5053266;28;20192;-78
2023/08/15 13:23:56;;;;;;;3.03;2.60;;;;;;;;;;5057718;28;20214;-78
2023/08/15 13:26:22;;;;;;;5.93;3.13;;;;;;;;;;5057289;28;20202;-78
2023/08/15 13:28:48;;;;;;;3.33;3.03;;;;;;;;;;5057522;28;20766;-78
2023/08/15 13:31:15;;;;;;;4.30;3.50;;;;;;;;;;5057151;28;20180;-77
2023/08/15 13:33:44;;;;;;;7.37;3.37;;;;;;;;;;5057832;28;20206;-77
2023/08/15 13:36:10;;;;;;;4.90;3.27;;;;;;;;;;5053373;28;20215;-78
2023/08/15 13:38:37;;;;;;;3.93;3.00;;;;;;;;;;5040147;28;20596;-78
2023/08/15 13:41:04;;;;;;;5.67;4.40;;;;;;;;;;5057230;28;20183;-77
2023/08/15 13:43:30;;;;;;;5.57;3.30;;;;;;;;;;5055889;28;20210;-78
2023/08/15 13:46:01;;;;;;;5.67;3.27;;;;;;;;;;5053461;28;20228;-76
2023/08/15 13:48:27;;;;;;;6.93;3.30;;;;;;;;;;5040560;28;20223;-76
2023/08/15 13:50:53;;;;;;;5.37;3.03;;;;;;;;;;5050870;28;20188;-76
2023/08/15 13:53:21;;;;;;;5.53;3.10;;;;;;;;;;5051934;28;20186;-76
2023/08/15 13:55:47;;;;;;;4.00;2.97;;;;;;;;;;5033871;28;20930;-76
2023/08/15 13:58:13;;;;;;;4.70;3.20;;;;;;;;;;5051588;28;20181;-76
2023/08/15 14:00:39;;;;;;;3.37;2.73;;;;;;;;;;5051344;28;20550;-76
2023/08/15 14:03:05;;;;;;;4.83;3.20;;;;;;;;;;5051375;28;20216;-76
2023/08/15 14:05:32;;;;;;;6.07;3.30;;;;;;;;;;5053069;28;20212;-77
2023/08/15 14:07:59;;;;;;;3.63;3.10;;;;;;;;;;5051327;28;20194;-76
2023/08/15 14:10:25;;;;;;;4.13;3.30;;;;;;;;;;5051095;28;20211;-76
2023/08/15 14:12:51;;;;;;;4.07;3.37;;;;;;;;;;5052487;28;20177;-76
2023/08/15 14:15:18;;;;;;;4.37;3.30;;;;;;;;;;5051823;28;20303;-76
2023/08/15 14:17:44;;;;;;;5.27;3.23;;;;;;;;;;5051731;28;20210;-77
2023/08/15 14:20:10;;;;;;;4.27;2.80;;;;;;;;;;5067406;28;20203;-77
2023/08/15 14:22:36;;;;;;;4.73;2.90;;;;;;;;;;5052378;28;20183;-77
2023/08/15 14:25:02;;;;;;;3.23;2.60;;;;;;;;;;5045794;28;20226;-77
2023/08/15 14:27:29;;;;;;;4.07;2.73;;;;;;;;;;5051610;28;20658;-77
2023/08/15 14:29:55;;;;;;;3.83;2.33;;;;;;;;;;5052039;28;20193;-77
2023/08/15 14:32:21;;;;;;;2.50;2.30;;;;;;;;;;5051490;28;20696;-77
2023/08/15 14:34:48;;;;;;;5.00;2.50;;;;;;;;;;5051853;28;20279;-77
2023/08/15 14:37:15;;;;;;;4.17;2.53;;;;;;;;;;5034083;28;20649;-77
2023/08/15 14:39:42;;;;;;;2.93;2.57;;;;;;;;;;5051733;28;20190;-77
2023/08/15 14:42:08;;;;;;;5.13;2.63;;;;;;;;;;5049638;28;20190;-77